createdAt,value
2023-02-08T00:00:41.973Z,103866.59
2023-02-08T00:03:15.833Z,103863.13
2023-02-08T00:05:48.754Z,103866.53
2023-02-08T00:08:16.116Z,103861.31
2023-02-08T00:10:49.744Z,103868.25
2023-02-08T00:13:16.614Z,103862.06
2023-02-08T00:15:45.279Z,103860.19
2023-02-08T00:18:18.714Z,103858.31
2023-02-08T00:20:45.694Z,103861.78
2023-02-08T00:23:19.811Z,103859.16
2023-02-08T00:25:46.610Z,103863.44
2023-02-08T00:28:21.816Z,103856.38
2023-02-08T00:30:49.074Z,103851.94
2023-02-08T00:33:21.854Z,103850.13
2023-02-08T00:36:02.409Z,103852.72
2023-02-08T00:38:35.767Z,103846.56
2023-02-08T00:41:02.545Z,103851.69
2023-02-08T00:43:35.833Z,103855.06
2023-02-08T00:46:02.483Z,103854.88
2023-02-08T00:48:35.765Z,103849.66
2023-02-08T00:51:13.627Z,103857.44
2023-02-08T00:53:50.798Z,103855.69
2023-02-08T00:56:17.597Z,103847.78
2023-02-08T00:58:44.602Z,103852.31
2023-02-08T01:01:18.841Z,103842.03
2023-02-08T01:03:45.533Z,103834.22
2023-02-08T01:06:23.753Z,103840.50
2023-02-08T01:08:50.279Z,103844.06
2023-02-08T01:11:28.738Z,103847.63
2023-02-08T01:14:05.798Z,103839.91
2023-02-08T01:16:40.826Z,103838.22
2023-02-08T01:19:07.523Z,103834.69
2023-02-08T01:21:43.762Z,103834.59
2023-02-08T01:24:11.300Z,103828.41
2023-02-08T01:26:44.864Z,103829.28
2023-02-08T01:29:11.694Z,103832.84
2023-02-08T01:31:40.639Z,103830.28
2023-02-08T01:34:15.798Z,103829.44
2023-02-08T01:36:48.802Z,103832.09
2023-02-08T01:39:15.337Z,103835.53
2023-02-08T01:41:44.448Z,103836.44
2023-02-08T01:44:20.814Z,103834.59
2023-02-08T01:46:51.167Z,103832.84
2023-02-08T01:49:35.790Z,103837.13
2023-02-08T01:52:08.224Z,103834.47
2023-02-08T01:54:51.764Z,103834.41
2023-02-08T01:57:20.381Z,103829.94
2023-02-08T02:00:07.810Z,103826.34
2023-02-08T02:02:36.961Z,103822.00
2023-02-08T02:05:10.816Z,103820.25
2023-02-08T02:07:38.409Z,103812.44
2023-02-08T02:10:26.833Z,103819.38
2023-02-08T02:12:56.954Z,103821.03
2023-02-08T02:15:30.768Z,103821.88
2023-02-08T02:18:03.755Z,103816.66
2023-02-08T02:21:10.827Z,103821.81
2023-02-08T02:23:56.190Z,103822.50
2023-02-08T02:26:59.779Z,103824.16
2023-02-08T02:29:38.425Z,103820.69
2023-02-08T02:32:32.849Z,103821.44
2023-02-08T02:35:37.839Z,103822.25
2023-02-08T02:38:17.825Z,103815.22
2023-02-08T02:40:53.077Z,103810.84
2023-02-08T02:43:58.777Z,103803.72
2023-02-08T02:46:30.080Z,103815.81
2023-02-08T02:49:15.786Z,103813.06
2023-02-08T02:52:11.409Z,103814.69
2023-02-08T02:54:53.835Z,103816.34
2023-02-08T02:57:27.902Z,103822.50
2023-02-08T03:00:01.824Z,103818.13
2023-02-08T03:02:29.066Z,103812.97
2023-02-08T03:05:03.790Z,103813.00
2023-02-08T03:07:54.941Z,103811.16
2023-02-08T03:10:53.817Z,103812.78
2023-02-08T03:13:39.834Z,103820.50
2023-02-08T03:16:18.170Z,103810.88
2023-02-08T03:19:02.839Z,103817.00
2023-02-08T03:21:52.787Z,103816.09
2023-02-08T03:24:29.249Z,103808.13
2023-02-08T03:27:12.867Z,103804.59
2023-02-08T03:29:54.486Z,103805.53
2023-02-08T03:32:33.886Z,103816.78
2023-02-08T03:35:31.786Z,103814.13
2023-02-08T03:38:13.843Z,103816.78
2023-02-08T03:40:44.513Z,103821.28
2023-02-08T03:43:30.797Z,103810.69
2023-02-08T03:46:08.146Z,103822.81
2023-02-08T03:48:43.858Z,103822.56
2023-02-08T03:51:10.586Z,103825.13
2023-02-08T03:53:40.610Z,103817.22
2023-02-08T03:56:20.889Z,103816.38
2023-02-08T03:59:00.832Z,103818.97
2023-02-08T04:01:32.591Z,103824.00
2023-02-08T04:04:08.038Z,103826.63
2023-02-08T04:06:41.850Z,103816.88
2023-02-08T04:09:14.845Z,103825.56
2023-02-08T04:11:47.848Z,103834.06
2023-02-08T04:14:14.434Z,103834.88
2023-02-08T04:16:47.836Z,103841.13
2023-02-08T04:19:14.467Z,103831.63
2023-02-08T04:21:47.870Z,103833.41
2023-02-08T04:24:14.841Z,103841.19
2023-02-08T04:26:47.837Z,103839.31
2023-02-08T04:29:21.869Z,103839.28
2023-02-08T04:31:54.873Z,103828.72
2023-02-08T04:34:41.859Z,103840.72
2023-02-08T04:37:15.835Z,103836.16
2023-02-08T04:39:42.553Z,103822.19
2023-02-08T04:42:15.871Z,103822.19
2023-02-08T04:44:48.893Z,103822.06
2023-02-08T04:47:15.621Z,103819.38
2023-02-08T04:49:48.822Z,103815.88
2023-02-08T04:52:15.473Z,103816.66
2023-02-08T04:54:48.865Z,103812.25
2023-02-08T04:57:21.923Z,103813.06
2023-02-08T04:59:54.924Z,103817.41
2023-02-08T05:02:21.545Z,103810.47
2023-02-08T05:04:54.947Z,103810.41
2023-02-08T05:07:21.705Z,103804.47
2023-02-08T05:09:54.834Z,103801.84
2023-02-08T05:12:21.424Z,103803.56
2023-02-08T05:14:47.943Z,103801.81
2023-02-08T05:17:20.891Z,103801.97
2023-02-08T05:19:47.632Z,103803.75
2023-02-08T05:22:20.812Z,103795.97
2023-02-08T05:24:47.795Z,103795.16
2023-02-08T05:27:20.834Z,103795.16
2023-02-08T05:29:47.474Z,103794.34
2023-02-08T05:32:14.172Z,103796.97
2023-02-08T05:34:46.875Z,103797.91
2023-02-08T05:37:20.177Z,103800.50
2023-02-08T05:39:53.872Z,103791.84
2023-02-08T05:42:26.905Z,103791.06
2023-02-08T05:44:59.850Z,103785.94
2023-02-08T05:47:32.876Z,103779.97
2023-02-08T05:50:13.074Z,103783.47
2023-02-08T05:52:39.736Z,103783.59
2023-02-08T05:55:13.900Z,103780.13
2023-02-08T05:57:40.455Z,103793.19
2023-02-08T06:00:13.890Z,103794.97
2023-02-08T06:02:40.539Z,103787.16
2023-02-08T06:05:13.872Z,103798.47
2023-02-08T06:07:40.384Z,103801.88
2023-02-08T06:10:13.959Z,103796.66
2023-02-08T06:12:40.480Z,103797.53
2023-02-08T06:15:07.424Z,103798.25
2023-02-08T06:17:40.897Z,103795.50
2023-02-08T06:20:07.942Z,103800.81
2023-02-08T06:22:41.840Z,103796.47
2023-02-08T06:25:08.586Z,103799.09
2023-02-08T06:27:41.840Z,103791.28
2023-02-08T06:30:08.985Z,103788.75
2023-02-08T06:32:41.887Z,103784.41
2023-02-08T06:35:14.948Z,103788.81
2023-02-08T06:37:54.929Z,103793.25
2023-02-08T06:40:21.532Z,103781.03
2023-02-08T06:42:54.907Z,103785.47
2023-02-08T06:45:21.380Z,103784.63
2023-02-08T06:47:54.818Z,103783.00
2023-02-08T06:50:23.983Z,103782.19
2023-02-08T06:52:56.915Z,103779.56
2023-02-08T06:55:29.885Z,103789.22
2023-02-08T06:57:56.556Z,103786.72
2023-02-08T07:00:29.880Z,103795.38
2023-02-08T07:02:56.397Z,103797.13
2023-02-08T07:05:29.846Z,103790.94
2023-02-08T07:07:56.439Z,103782.09
2023-02-08T07:10:29.863Z,103788.34
2023-02-08T07:12:56.494Z,103788.34
2023-02-08T07:15:29.833Z,103787.47
2023-02-08T07:17:56.752Z,103789.22
2023-02-08T07:20:23.539Z,103791.03
2023-02-08T07:22:56.879Z,103788.47
2023-02-08T07:25:29.899Z,103779.91
2023-02-08T07:28:03.005Z,103780.97
2023-02-08T07:30:35.967Z,103781.00
2023-02-08T07:33:02.579Z,103777.69
2023-02-08T07:35:35.879Z,103772.50
2023-02-08T07:38:15.941Z,103776.94
2023-02-08T07:40:48.921Z,103769.19
2023-02-08T07:43:21.887Z,103763.94
2023-02-08T07:45:48.474Z,103777.97
2023-02-08T07:48:15.003Z,103779.78
2023-02-08T07:50:47.846Z,103780.72
2023-02-08T07:53:14.515Z,103785.97
2023-02-08T07:55:47.912Z,103780.75
2023-02-08T07:58:14.564Z,103779.16
2023-02-08T08:00:47.932Z,103767.03
2023-02-08T08:03:20.931Z,103774.03
2023-02-08T08:05:55.029Z,103760.25
2023-02-08T08:08:21.719Z,103751.97
2023-02-08T08:10:55.970Z,103751.34
2023-02-08T08:13:28.967Z,103757.66
2023-02-08T08:15:55.529Z,103757.94
2023-02-08T08:18:28.913Z,103753.75
2023-02-08T08:20:55.427Z,103754.00
2023-02-08T08:23:28.879Z,103747.28
2023-02-08T08:25:55.808Z,103747.50
2023-02-08T08:28:29.012Z,103738.94
2023-02-08T08:30:57.577Z,103740.19
2023-02-08T08:33:30.914Z,103739.56
2023-02-08T08:36:04.502Z,103732.00
2023-02-08T08:38:37.949Z,103718.34
2023-02-08T08:41:17.994Z,103724.16
2023-02-08T08:43:51.921Z,103728.06
2023-02-08T08:46:18.936Z,103731.84
2023-02-08T08:48:52.924Z,103723.47
2023-02-08T08:51:32.897Z,103726.31
2023-02-08T08:54:05.995Z,103721.38
2023-02-08T08:56:32.941Z,103735.69
2023-02-08T08:58:59.997Z,103739.38
2023-02-08T09:01:34.777Z,103737.00
2023-02-08T09:04:01.467Z,103725.00
2023-02-08T09:06:34.936Z,103724.38
2023-02-08T09:09:02.062Z,103742.03
2023-02-08T09:11:34.944Z,103729.94
2023-02-08T09:14:05.696Z,103752.91
2023-02-08T09:16:38.892Z,103745.34
2023-02-08T09:19:07.411Z,103750.00
2023-02-08T09:21:40.939Z,103747.53
2023-02-08T09:24:13.942Z,103747.63
2023-02-08T09:26:40.472Z,103735.38
2023-02-08T09:29:28.908Z,103742.44
2023-02-08T09:32:10.490Z,103745.09
2023-02-08T09:34:57.884Z,103746.81
2023-02-08T09:37:30.931Z,103746.72
2023-02-08T09:40:00.256Z,103738.59
2023-02-08T09:42:29.782Z,103739.91
2023-02-08T09:45:27.926Z,103744.47
2023-02-08T09:48:14.712Z,103731.16
2023-02-08T09:50:59.920Z,103744.63
2023-02-08T09:54:08.965Z,103745.59
2023-02-08T09:56:46.947Z,103750.53
2023-02-08T09:59:27.975Z,103754.13
2023-02-08T10:02:01.558Z,103744.81
2023-02-08T10:04:49.987Z,103744.56
2023-02-08T10:07:22.932Z,103748.72
2023-02-08T10:09:55.983Z,103737.25
2023-02-08T10:12:43.950Z,103745.25
2023-02-08T10:15:16.066Z,103747.88
2023-02-08T10:18:11.948Z,103746.13
2023-02-08T10:20:45.126Z,103745.53
2023-02-08T10:23:24.025Z,103747.00
2023-02-08T10:26:08.971Z,103745.53
2023-02-08T10:28:54.966Z,103746.47
2023-02-08T10:31:59.008Z,103756.22
2023-02-08T10:34:43.939Z,103743.50
2023-02-08T10:37:25.996Z,103749.66
2023-02-08T10:39:58.963Z,103747.78
2023-02-08T10:42:28.852Z,103748.63
2023-02-08T10:45:24.191Z,103734.97
2023-02-08T10:47:56.800Z,103728.88
2023-02-08T10:50:39.960Z,103744.59
2023-02-08T10:53:12.979Z,103736.84
2023-02-08T10:55:42.781Z,103741.50
2023-02-08T10:58:21.953Z,103732.97
2023-02-08T11:00:58.024Z,103739.78
2023-02-08T11:03:27.391Z,103745.19
2023-02-08T11:06:01.013Z,103735.00
2023-02-08T11:08:28.893Z,103742.19
2023-02-08T11:11:14.019Z,103740.50
2023-02-08T11:13:48.254Z,103734.59
2023-02-08T11:16:29.990Z,103731.44
2023-02-08T11:19:02.207Z,103727.13
2023-02-08T11:21:39.954Z,103724.31
2023-02-08T11:24:15.565Z,103731.25
2023-02-08T11:26:49.966Z,103721.78
2023-02-08T11:29:29.258Z,103711.31
2023-02-08T11:32:02.169Z,103703.91
2023-02-08T11:34:39.300Z,103717.44
2023-02-08T11:37:30.014Z,103716.59
2023-02-08T11:39:59.227Z,103704.22
2023-02-08T11:42:43.050Z,103701.94
2023-02-08T11:45:21.151Z,103692.81
2023-02-08T11:47:54.974Z,103697.03
2023-02-08T11:50:36.983Z,103697.81
2023-02-08T11:53:08.325Z,103685.28
2023-02-08T11:55:42.210Z,103689.47
2023-02-08T11:58:18.061Z,103684.97
2023-02-08T12:01:02.453Z,103689.31
2023-02-08T12:03:44.042Z,103676.69
2023-02-08T12:06:45.079Z,103680.00
2023-02-08T12:09:30.948Z,103671.34
2023-02-08T12:12:17.739Z,103661.03
2023-02-08T12:15:02.986Z,103667.03
2023-02-08T12:17:46.858Z,103649.63
2023-02-08T12:20:30.036Z,103644.97
2023-02-08T12:23:30.748Z,103645.97
2023-02-08T12:26:26.062Z,103647.38
2023-02-08T12:28:55.646Z,103637.59
2023-02-08T12:31:56.078Z,103630.53
2023-02-08T12:34:53.165Z,103634.38
2023-02-08T12:38:11.086Z,103627.31
2023-02-08T12:41:02.048Z,103616.94
2023-02-08T12:43:35.008Z,103611.81
2023-02-08T12:46:26.074Z,103600.16
2023-02-08T12:49:11.137Z,103600.56
2023-02-08T12:51:56.860Z,103601.47
2023-02-08T12:54:39.006Z,103594.34
2023-02-08T12:57:14.060Z,103582.22
2023-02-08T12:59:53.029Z,103580.09
2023-02-08T13:02:32.032Z,103579.16
2023-02-08T13:05:04.527Z,103564.38
2023-02-08T13:07:48.064Z,103571.50
2023-02-08T13:10:36.069Z,103564.44
2023-02-08T13:13:33.035Z,103557.50
2023-02-08T13:16:22.773Z,103556.97
2023-02-08T13:19:40.588Z,103546.38
2023-02-08T13:22:12.656Z,103553.81
2023-02-08T13:24:55.266Z,103550.22
2023-02-08T13:27:34.122Z,103544.97
2023-02-08T13:30:01.396Z,103551.09
2023-02-08T13:32:49.024Z,103539.34
2023-02-08T13:35:31.168Z,103527.25
2023-02-08T13:38:14.068Z,103534.19
2023-02-08T13:40:42.145Z,103535.16
2023-02-08T13:43:38.314Z,103531.84
2023-02-08T13:46:07.101Z,103531.28
2023-02-08T13:48:54.098Z,103525.19
2023-02-08T13:51:33.025Z,103516.44
2023-02-08T13:54:09.362Z,103517.34
2023-02-08T13:56:50.263Z,103511.81
2023-02-08T13:59:42.026Z,103501.63
2023-02-08T14:02:11.461Z,103503.28
2023-02-08T14:04:56.097Z,103500.28
2023-02-08T14:07:37.441Z,103498.03
2023-02-08T14:10:16.158Z,103490.16
2023-02-08T14:12:49.348Z,103486.84
2023-02-08T14:15:22.066Z,103486.13
2023-02-08T14:17:51.166Z,103468.09
2023-02-08T14:20:31.075Z,103480.81
2023-02-08T14:23:08.125Z,103470.38
2023-02-08T14:25:51.058Z,103476.09
2023-02-08T14:28:34.082Z,103475.06
2023-02-08T14:31:12.223Z,103473.28
2023-02-08T14:33:49.075Z,103458.59
2023-02-08T14:36:30.576Z,103469.19
2023-02-08T14:39:33.055Z,103467.56
2023-02-08T14:42:03.948Z,103462.94
2023-02-08T14:44:48.066Z,103461.78
2023-02-08T14:47:26.968Z,103461.06
2023-02-08T14:50:23.064Z,103456.97
2023-02-08T14:52:57.954Z,103455.13
2023-02-08T14:55:34.060Z,103453.25
2023-02-08T14:58:09.113Z,103448.81
2023-02-08T15:00:45.118Z,103440.72
2023-02-08T15:03:16.364Z,103442.19
2023-02-08T15:06:25.085Z,103434.78
2023-02-08T15:09:02.111Z,103441.56
2023-02-08T15:11:39.074Z,103428.88
2023-02-08T15:14:13.141Z,103435.31
2023-02-08T15:16:44.176Z,103431.22
2023-02-08T15:19:33.132Z,103418.25
2023-02-08T15:22:31.170Z,103412.09
2023-02-08T15:25:27.070Z,103411.41
2023-02-08T15:27:59.836Z,103403.72
2023-02-08T15:30:45.421Z,103401.22
2023-02-08T15:33:19.747Z,103399.59
2023-02-08T15:36:09.074Z,103389.97
2023-02-08T15:38:38.798Z,103381.34
2023-02-08T15:41:21.114Z,103377.03
2023-02-08T15:43:47.634Z,103369.16
2023-02-08T15:46:30.118Z,103376.94
2023-02-08T15:48:57.525Z,103374.28
2023-02-08T15:51:31.190Z,103366.25
2023-02-08T15:54:04.122Z,103363.66
2023-02-08T15:56:38.015Z,103357.53
2023-02-08T15:59:21.109Z,103344.59
2023-02-08T16:01:48.079Z,103351.66
2023-02-08T16:04:21.101Z,103352.59
2023-02-08T16:06:52.169Z,103354.56
2023-02-08T16:09:35.104Z,103339.81
2023-02-08T16:12:01.763Z,103347.84
2023-02-08T16:14:51.679Z,103353.41
2023-02-08T16:17:36.451Z,103340.22
2023-02-08T16:20:34.369Z,103350.09
2023-02-08T16:23:34.657Z,103349.50
2023-02-08T16:26:26.483Z,103344.56
2023-02-08T16:29:04.408Z,103350.97
2023-02-08T16:31:39.198Z,103340.66
2023-02-08T16:34:20.118Z,103347.94
2023-02-08T16:36:57.155Z,103349.13
2023-02-08T16:39:43.128Z,103349.38
2023-02-08T16:42:31.090Z,103343.44
2023-02-08T16:45:13.134Z,103333.94
2023-02-08T16:47:54.118Z,103334.13
2023-02-08T16:50:25.678Z,103328.16
2023-02-08T16:53:07.182Z,103322.16
2023-02-08T16:55:43.184Z,103321.66
2023-02-08T16:58:23.610Z,103299.66
2023-02-08T17:00:51.519Z,103298.16
2023-02-08T17:03:25.366Z,103299.09
2023-02-08T17:05:59.130Z,103291.91
2023-02-08T17:08:26.606Z,103303.06
2023-02-08T17:11:05.203Z,103291.19
2023-02-08T17:13:31.863Z,103292.16
2023-02-08T17:16:07.233Z,103303.63
2023-02-08T17:18:35.065Z,103304.91
2023-02-08T17:21:09.135Z,103308.25
2023-02-08T17:23:42.208Z,103295.38
2023-02-08T17:26:39.241Z,103292.66
2023-02-08T17:29:06.373Z,103292.03
2023-02-08T17:31:39.178Z,103284.84
2023-02-08T17:34:05.864Z,103285.16
2023-02-08T17:36:46.183Z,103281.53
2023-02-08T17:39:12.919Z,103283.28
2023-02-08T17:41:47.160Z,103288.47
2023-02-08T17:44:15.213Z,103285.72
2023-02-08T17:46:49.164Z,103284.81
2023-02-08T17:49:16.372Z,103278.75
2023-02-08T17:51:49.201Z,103273.16
2023-02-08T17:54:22.166Z,103272.03
2023-02-08T17:56:48.749Z,103264.94
2023-02-08T17:59:22.156Z,103260.75
2023-02-08T18:01:48.812Z,103249.09
2023-02-08T18:04:22.133Z,103253.41
2023-02-08T18:06:48.724Z,103271.78
2023-02-08T18:09:22.209Z,103265.53
2023-02-08T18:11:48.922Z,103269.41
2023-02-08T18:14:22.185Z,103265.00
2023-02-08T18:16:55.164Z,103261.75
2023-02-08T18:19:22.503Z,103255.50
2023-02-08T18:21:55.172Z,103250.97
2023-02-08T18:24:21.748Z,103254.72
2023-02-08T18:26:55.235Z,103237.66
2023-02-08T18:29:21.860Z,103254.44
2023-02-08T18:31:55.509Z,103248.84
2023-02-08T18:34:28.227Z,103248.31
2023-02-08T18:37:08.146Z,103242.72
2023-02-08T18:39:34.942Z,103239.50
2023-02-08T18:42:08.233Z,103238.31
2023-02-08T18:44:43.152Z,103228.78
2023-02-08T18:47:10.848Z,103220.69
2023-02-08T18:49:47.210Z,103224.72
2023-02-08T18:52:16.017Z,103231.75
2023-02-08T18:54:49.166Z,103218.66
2023-02-08T18:57:16.017Z,103213.41
2023-02-08T18:59:49.230Z,103224.34
2023-02-08T19:02:21.231Z,103223.00
2023-02-08T19:04:55.214Z,103212.03
2023-02-08T19:07:22.024Z,103230.16
2023-02-08T19:09:56.207Z,103218.06
2023-02-08T19:12:29.250Z,103218.56
2023-02-08T19:14:56.019Z,103217.69
2023-02-08T19:17:29.204Z,103210.50
2023-02-08T19:20:02.263Z,103212.56
2023-02-08T19:22:35.248Z,103200.97
2023-02-08T19:25:01.937Z,103203.75
2023-02-08T19:27:36.203Z,103205.72
2023-02-08T19:30:11.234Z,103204.34
2023-02-08T19:32:44.165Z,103205.72
2023-02-08T19:35:17.238Z,103215.13
2023-02-08T19:37:58.197Z,103216.78
2023-02-08T19:40:31.251Z,103200.22
2023-02-08T19:42:57.894Z,103197.34
2023-02-08T19:45:31.266Z,103202.53
2023-02-08T19:47:57.942Z,103202.53
2023-02-08T19:50:31.226Z,103200.72
2023-02-08T19:52:57.809Z,103202.28
2023-02-08T19:55:31.189Z,103208.69
2023-02-08T19:57:57.694Z,103215.09
2023-02-08T20:00:32.186Z,103218.56
2023-02-08T20:02:58.779Z,103214.97
2023-02-08T20:05:25.361Z,103214.78
2023-02-08T20:07:58.319Z,103209.22
2023-02-08T20:10:31.250Z,103209.69
2023-02-08T20:12:57.917Z,103207.56
2023-02-08T20:15:31.277Z,103203.25
2023-02-08T20:18:02.211Z,103202.97
2023-02-08T20:20:36.227Z,103200.25
2023-02-08T20:23:20.866Z,103204.84
2023-02-08T20:25:49.256Z,103210.41
2023-02-08T20:28:22.339Z,103208.28
2023-02-08T20:30:49.022Z,103211.97
2023-02-08T20:33:22.194Z,103212.09
2023-02-08T20:35:55.274Z,103210.13
2023-02-08T20:38:28.222Z,103206.59
2023-02-08T20:41:02.204Z,103207.94
2023-02-08T20:43:35.235Z,103202.97
2023-02-08T20:46:06.552Z,103206.84
2023-02-08T20:48:40.218Z,103207.06
2023-02-08T20:51:09.100Z,103215.66
2023-02-08T20:53:44.242Z,103206.91
2023-02-08T20:56:22.211Z,103196.00
2023-02-08T20:58:49.391Z,103196.75
2023-02-08T21:01:26.258Z,103198.00
2023-02-08T21:04:01.236Z,103187.66
2023-02-08T21:06:37.263Z,103197.72
2023-02-08T21:09:08.693Z,103199.34
2023-02-08T21:11:42.305Z,103192.75
2023-02-08T21:14:13.696Z,103182.34
2023-02-08T21:16:47.397Z,103180.66
2023-02-08T21:19:15.514Z,103171.34
2023-02-08T21:21:49.251Z,103183.09
2023-02-08T21:24:22.211Z,103188.78
2023-02-08T21:26:48.828Z,103181.84
2023-02-08T21:29:22.222Z,103182.06
2023-02-08T21:31:58.308Z,103178.84
2023-02-08T21:34:25.036Z,103189.34
2023-02-08T21:37:05.316Z,103184.78
2023-02-08T21:39:47.262Z,103171.09
2023-02-08T21:42:20.212Z,103177.19
2023-02-08T21:44:46.791Z,103169.34
2023-02-08T21:47:20.224Z,103164.72
2023-02-08T21:50:12.282Z,103171.06
2023-02-08T21:52:57.534Z,103162.88
2023-02-08T21:55:30.247Z,103170.72
2023-02-08T21:57:56.848Z,103170.28
2023-02-08T22:00:30.327Z,103163.78
2023-02-08T22:02:56.874Z,103163.97
2023-02-08T22:05:30.223Z,103157.34
2023-02-08T22:07:59.409Z,103157.59
2023-02-08T22:10:36.293Z,103158.69
2023-02-08T22:13:02.904Z,103150.63
2023-02-08T22:15:37.340Z,103141.03
2023-02-08T22:18:04.322Z,103140.53
2023-02-08T22:20:38.304Z,103136.53
2023-02-08T22:23:06.029Z,103138.06
2023-02-08T22:25:39.265Z,103133.31
2023-02-08T22:28:13.396Z,103138.25
2023-02-08T22:30:40.322Z,103131.84
2023-02-08T22:33:13.228Z,103131.56
2023-02-08T22:35:46.427Z,103123.34
2023-02-08T22:38:26.274Z,103116.94
2023-02-08T22:40:52.936Z,103115.41
2023-02-08T22:43:19.567Z,103110.91
2023-02-08T22:46:02.292Z,103110.69
2023-02-08T22:48:36.305Z,103121.38
2023-02-08T22:51:12.613Z,103124.41
2023-02-08T22:53:45.333Z,103115.50
2023-02-08T22:56:14.966Z,103116.69
2023-02-08T22:58:48.307Z,103115.06
2023-02-08T23:01:17.028Z,103116.03
2023-02-08T23:03:43.855Z,103119.59
2023-02-08T23:06:21.307Z,103112.56
2023-02-08T23:08:48.339Z,103109.09
2023-02-08T23:11:22.373Z,103114.41
2023-02-08T23:13:48.938Z,103114.44
2023-02-08T23:16:24.308Z,103113.56
2023-02-08T23:18:51.355Z,103118.00
2023-02-08T23:21:26.358Z,103116.25
2023-02-08T23:23:52.980Z,103113.66
2023-02-08T23:26:20.966Z,103114.53
2023-02-08T23:28:57.340Z,103111.03
2023-02-08T23:31:30.406Z,103103.16
2023-02-08T23:34:05.381Z,103096.13
2023-02-08T23:36:45.294Z,103096.09
2023-02-08T23:39:18.588Z,103093.47
2023-02-08T23:41:51.344Z,103098.72
2023-02-08T23:44:24.242Z,103086.47
2023-02-08T23:46:50.835Z,103079.41
2023-02-08T23:49:24.268Z,103092.50
2023-02-08T23:51:53.269Z,103086.38
2023-02-08T23:54:26.339Z,103077.63
2023-02-08T23:56:53.163Z,103085.53
2023-02-08T23:59:26.274Z,103082.03
